Terminal Aerodrome Forecast
Issued by NWS

Home | Current Version | Previous Version | Text Only | Print | Product List | Glossary On
Versions: 1 2 3 4 5 6 7 8 9 10 11 12 13 14 15 16 17 18 19 20 21
000
FTUS43 KSGF 172200 AAA
TAFJLN
TAF AMD
KJLN 172242Z 1723/1818 18005KT P6SM VCTS BKN040CB BKN050 OVC070
      TEMPO 1723/1802 6SM -TSRA BR SCT020 OVC035CB
     FM180200 VRB04KT 5SM BR VCTS SCT010CB OVC100
     FM180600 VRB04KT 6SM BR SCT010 OVC100=

USA.gov is the U.S. government's official web portal to all federal, state and local government web resources and services.